Time;durP1;ratioP1;P1;durP2;ratioP2;P2;SDS_P1;SDS_P2;PMS_P1;PMS_P2;Temp;Humidity;BMP_temperature;BMP_pressure;BME280_temperature;BME280_humidity;BME280_pressure;Samples;Min_cycle;Max_cycle;Signal;HPM_P1;HPM_P2
2022/11/15 00:01:43;;;;;;;;;;;;;;;17.33;48.88;101629.94;5058815;28;1112;-54
2022/11/15 00:04:27;;;;;;;;;;;;;;;17.06;47.81;101625.25;5043707;28;1853;-53
2022/11/15 00:07:11;;;;;;;;;;;;;;;17.90;48.82;101633.28;5051792;28;1034;-51
2022/11/15 00:09:55;;;;;;;;;;;;;;;17.28;49.23;101629.91;5058879;28;930;-51
2022/11/15 00:12:39;;;;;;;;;;;;;;;19.17;47.70;101628.03;5058928;28;1981;-47
2022/11/15 00:15:23;;;;;;;;;;;;;;;17.63;49.67;101623.13;5058991;28;1175;-50
2022/11/15 00:18:11;;;;;;;;;;;;;;;17.33;48.29;101621.72;5058420;28;1163;-50
2022/11/15 00:20:55;;;;;;;;;;;;;;;17.12;47.38;101626.13;5058753;28;1089;-49
2022/11/15 00:23:39;;;;;;;;;;;;;;;17.85;49.57;101620.31;5058661;28;1040;-48
2022/11/15 00:26:23;;;;;;;;;;;;;;;17.24;48.52;101621.34;5058540;28;1057;-53
2022/11/15 00:29:07;;;;;;;;;;;;;;;18.02;49.09;101617.47;5058279;28;1112;-50
2022/11/15 00:31:52;;;;;;;;;;;;;;;17.41;49.00;101607.50;5058481;28;1965;-52
2022/11/15 00:34:36;;;;;;;;;;;;;;;17.08;48.48;101617.59;5058283;28;2210;-54
2022/11/15 00:37:19;;;;;;;;;;;;;;;17.45;49.07;101611.41;5058410;28;1168;-52
2022/11/15 00:40:03;;;;;;;;;;;;;;;17.06;48.34;101616.19;5058258;28;1085;-54
2022/11/15 00:42:47;;;;;;;;;;;;;;;16.79;47.38;101602.34;5052630;28;952;-53
2022/11/15 00:45:31;;;;;;;;;;;;;;;17.08;47.71;101612.09;5055507;28;1160;-51
2022/11/15 00:48:15;;;;;;;;;;;;;;;17.50;48.77;101601.53;5048355;28;1089;-51
2022/11/15 00:50:59;;;;;;;;;;;;;;;17.55;49.08;101594.16;5057966;28;1267;-51
2022/11/15 00:53:43;;;;;;;;;;;;;;;18.50;48.26;101606.50;5057520;28;1902;-53
2022/11/15 00:56:26;;;;;;;;;;;;;;;17.44;49.04;101598.72;5046595;28;1034;-52
2022/11/15 00:59:10;;;;;;;;;;;;;;;17.15;48.16;101595.38;5057993;28;1097;-51
2022/11/15 01:01:54;;;;;;;;;;;;;;;16.91;47.33;101589.34;5057809;28;1197;-51
2022/11/15 01:04:39;;;;;;;;;;;;;;;16.88;46.66;101596.19;5044165;28;1939;-51
2022/11/15 01:07:22;;;;;;;;;;;;;;;17.91;48.88;101588.22;5057598;28;930;-53
2022/11/15 01:10:07;;;;;;;;;;;;;;;17.24;49.23;101576.53;5057842;28;1057;-51
2022/11/15 01:12:51;;;;;;;;;;;;;;;17.02;48.02;101585.63;5057613;28;1934;-53
2022/11/15 01:15:38;;;;;;;;;;;;;;;17.90;48.85;101584.56;5057730;28;1132;-53
2022/11/15 01:18:22;;;;;;;;;;;;;;;17.16;48.63;101599.81;5057443;28;866;-57
2022/11/15 01:21:07;;;;;;;;;;;;;;;18.90;47.87;101584.94;5057663;28;1092;-53
2022/11/15 01:23:55;;;;;;;;;;;;;;;17.69;48.97;101600.06;5057456;28;1061;-52
2022/11/15 01:26:38;;;;;;;;;;;;;;;17.23;48.29;101591.38;5057383;28;1093;-53
2022/11/15 01:29:22;;;;;;;;;;;;;;;16.99;47.58;101590.81;5057528;28;1057;-54
2022/11/15 01:32:06;;;;;;;;;;;;;;;16.80;46.54;101576.53;5057234;28;1980;-53
2022/11/15 01:34:50;;;;;;;;;;;;;;;17.71;48.54;101586.91;5053616;28;1267;-58
2022/11/15 01:37:34;;;;;;;;;;;;;;;17.00;48.71;101587.81;5055935;28;1193;-54
2022/11/15 01:40:18;;;;;;;;;;;;;;;17.43;48.82;101586.09;5042052;28;1073;-55
2022/11/15 01:43:18;;;;;;;;;;;;;;;17.42;49.24;101589.94;5056948;28;875;-52
2022/11/15 01:46:04;;;;;;;;;;;;;;;17.00;48.83;101589.72;5057061;28;914;-53
2022/11/15 01:48:49;;;;;;;;;;;;;;;17.57;49.13;101574.66;5056917;28;1235;-53
2022/11/15 01:51:32;;;;;;;;;;;;;;;17.08;48.60;101590.13;5057026;28;1076;-55
2022/11/15 01:54:17;;;;;;;;;;;;;;;16.89;47.35;101572.31;5056631;28;1121;-56
2022/11/15 01:57:01;;;;;;;;;;;;;;;18.16;48.41;101570.19;5041830;28;1101;-56
2022/11/15 01:59:45;;;;;;;;;;;;;;;17.13;49.57;101577.53;5041592;28;903;-52
2022/11/15 02:02:30;;;;;;;;;;;;;;;19.05;47.68;101567.66;5041285;28;2063;-53
2022/11/15 02:05:13;;;;;;;;;;;;;;;18.11;49.14;101569.06;5056683;28;1076;-53
2022/11/15 02:07:57;;;;;;;;;;;;;;;17.52;48.94;101566.38;5056304;28;1279;-54
2022/11/15 02:10:41;;;;;;;;;;;;;;;17.75;49.16;101570.69;5041486;28;1061;-54
2022/11/15 02:13:25;;;;;;;;;;;;;;;17.45;49.36;101569.34;5056909;28;1968;-54
2022/11/15 02:16:13;;;;;;;;;;;;;;;18.11;49.30;101563.56;5056522;28;1168;-56
2022/11/15 02:19:00;;;;;;;;;;;;;;;18.00;49.60;101564.59;5041095;28;1085;-54
2022/11/15 02:21:50;;;;;;;;;;;;;;;17.42;48.94;101567.09;5041980;28;939;-53
2022/11/15 02:24:43;;;;;;;;;;;;;;;17.19;47.73;101562.75;5056183;28;1155;-50
2022/11/15 02:27:33;;;;;;;;;;;;;;;18.05;49.13;101564.63;5055925;28;1253;-53
2022/11/15 02:30:23;;;;;;;;;;;;;;;17.34;48.50;101565.66;5056018;28;950;-52
2022/11/15 02:33:14;;;;;;;;;;;;;;;17.61;48.79;101559.28;5056017;28;2054;-55
2022/11/15 02:35:59;;;;;;;;;;;;;;;17.52;49.16;101545.19;5041024;28;1136;-54
2022/11/15 02:38:46;;;;;;;;;;;;;;;17.07;48.35;101563.72;5042651;28;951;-53
2022/11/15 02:41:32;;;;;;;;;;;;;;;16.96;47.31;101555.59;5056162;28;1125;-52
2022/11/15 02:44:21;;;;;;;;;;;;;;;17.67;48.36;101549.16;5040605;28;915;-53
2022/11/15 02:47:12;;;;;;;;;;;;;;;17.04;48.20;101550.50;5040863;28;1120;-56
2022/11/15 02:50:20;;;;;;;;;;;;;;;18.30;48.45;101549.41;5041776;28;1148;-53
2022/11/15 02:53:04;;;;;;;;;;;;;;;17.33;48.89;101549.41;5043733;28;1902;-56
2022/11/15 02:55:48;;;;;;;;;;;;;;;17.48;49.23;101537.75;5055627;28;1108;-55
2022/11/15 02:58:35;;;;;;;;;;;;;;;17.18;49.51;101539.09;5055953;28;1175;-55
2022/11/15 03:01:38;;;;;;;;;;;;;;;16.95;48.17;101541.03;5042342;28;1103;-54
2022/11/15 03:04:36;;;;;;;;;;;;;;;17.63;48.72;101537.88;5055739;28;1986;-52
2022/11/15 03:07:34;;;;;;;;;;;;;;;17.03;48.16;101537.84;5040224;28;1180;-55
2022/11/15 03:10:32;;;;;;;;;;;;;;;17.61;48.62;101531.78;5045187;28;1124;-55
2022/11/15 03:13:19;;;;;;;;;;;;;;;16.92;48.38;101525.09;5039978;28;1910;-53
2022/11/15 03:16:08;;;;;;;;;;;;;;;17.22;48.66;101534.72;5040622;28;1085;-54
2022/11/15 03:18:53;;;;;;;;;;;;;;;17.09;48.84;101531.31;5040119;28;1057;-52
2022/11/15 03:21:37;;;;;;;;;;;;;;;16.92;47.80;101525.91;5054532;28;1195;-50
2022/11/15 03:24:21;;;;;;;;;;;;;;;16.65;47.35;101531.34;5040329;28;1124;-53
2022/11/15 03:27:08;;;;;;;;;;;;;;;17.71;48.00;101515.41;5055673;28;1096;-50
2022/11/15 03:29:56;;;;;;;;;;;;;;;17.02;48.46;101521.63;5055623;28;1116;-55
2022/11/15 03:32:44;;;;;;;;;;;;;;;18.78;47.31;101517.09;5051999;28;1906;-51
2022/11/15 03:35:29;;;;;;;;;;;;;;;17.70;49.10;101519.22;5043158;28;947;-51
2022/11/15 03:38:26;;;;;;;;;;;;;;;17.20;48.47;101514.94;5040283;28;1152;-55
2022/11/15 03:41:14;;;;;;;;;;;;;;;17.05;48.65;101515.59;5029005;28;1145;-54
2022/11/15 03:44:12;;;;;;;;;;;;;;;17.49;49.47;101511.88;5055040;28;1097;-52
2022/11/15 03:47:16;;;;;;;;;;;;;;;17.06;48.36;101507.09;5055319;28;1195;-48
2022/11/15 03:50:20;;;;;;;;;;;;;;;17.79;49.00;101495.66;5050265;28;1330;-53
2022/11/15 03:53:04;;;;;;;;;;;;;;;17.02;48.51;101492.22;5055079;28;1901;-52
2022/11/15 03:55:48;;;;;;;;;;;;;;;18.21;48.58;101488.47;5039832;28;1226;-52
2022/11/15 03:58:32;;;;;;;;;;;;;;;17.20;49.19;101492.94;5055115;28;1073;-53
2022/11/15 04:01:16;;;;;;;;;;;;;;;17.00;47.73;101494.41;5041182;28;1108;-53
2022/11/15 04:04:00;;;;;;;;;;;;;;;17.92;48.58;101490.78;5054723;28;1049;-53
2022/11/15 04:06:44;;;;;;;;;;;;;;;17.15;48.85;101490.97;5054649;28;1140;-56
2022/11/15 04:09:28;;;;;;;;;;;;;;;16.91;47.60;101495.94;5055069;28;1100;-54
2022/11/15 04:12:12;;;;;;;;;;;;;;;17.68;48.25;101484.81;5055141;28;1913;-54
2022/11/15 04:15:08;;;;;;;;;;;;;;;17.03;48.58;101491.13;5055312;28;982;-54
2022/11/15 04:17:53;;;;;;;;;;;;;;;17.45;48.49;101495.91;5054884;28;1097;-51
2022/11/15 04:26:43;;;;;;;;;;;;;;;17.23;49.06;101490.50;5058577;28;1191;-53
2022/11/15 04:29:36;;;;;;;;;;;;;;;17.86;48.67;101495.41;5058534;28;1061;-54
2022/11/15 04:32:20;;;;;;;;;;;;;;;17.79;48.97;101495.66;5051097;28;2378;-54
2022/11/15 04:35:04;;;;;;;;;;;;;;;17.27;48.48;101497.13;5054156;28;1442;-55
2022/11/15 04:37:47;;;;;;;;;;;;;;;16.95;47.70;101497.09;5057989;28;942;-55
2022/11/15 04:40:31;;;;;;;;;;;;;;;16.79;46.79;101486.97;5056976;28;1470;-53
2022/11/15 04:43:15;;;;;;;;;;;;;;;18.01;48.24;101489.22;5057810;28;1100;-56
2022/11/15 04:45:59;;;;;;;;;;;;;;;17.13;48.87;101484.91;5044311;28;955;-52
2022/11/15 04:48:43;;;;;;;;;;;;;;;18.26;48.72;101480.25;5058112;28;1017;-55
2022/11/15 04:51:27;;;;;;;;;;;;;;;17.72;49.24;101491.47;5058531;28;1136;-54
2022/11/15 04:54:11;;;;;;;;;;;;;;;17.22;48.51;101479.75;5057297;28;1959;-58
2022/11/15 04:56:55;;;;;;;;;;;;;;;17.79;49.16;101487.41;5053901;28;1226;-50
2022/11/15 04:59:38;;;;;;;;;;;;;;;17.18;48.98;101470.38;5043534;28;1259;-53
2022/11/15 05:02:22;;;;;;;;;;;;;;;18.57;48.41;101479.56;5054532;28;2227;-49
2022/11/15 05:05:06;;;;;;;;;;;;;;;18.02;49.34;101487.28;5054386;28;1427;-49
2022/11/15 05:07:50;;;;;;;;;;;;;;;17.39;48.68;101479.63;5056658;28;1051;-53
2022/11/15 05:10:34;;;;;;;;;;;;;;;17.20;47.34;101477.28;5057185;28;1077;-49
2022/11/15 05:13:18;;;;;;;;;;;;;;;17.05;46.95;101480.69;5043501;28;1980;-49
2022/11/15 05:16:02;;;;;;;;;;;;;;;18.14;48.49;101474.13;5056934;28;1112;-48
2022/11/15 05:18:46;;;;;;;;;;;;;;;17.24;48.59;101483.09;5046315;28;2896;-48
2022/11/15 05:21:30;;;;;;;;;;;;;;;17.12;48.30;101485.16;5056285;28;863;-49
2022/11/15 05:24:14;;;;;;;;;;;;;;;17.28;49.16;101489.72;5056901;28;1132;-58
2022/11/15 05:26:58;;;;;;;;;;;;;;;18.21;48.97;101490.41;5044711;28;1002;-49
2022/11/15 05:29:42;;;;;;;;;;;;;;;18.53;48.72;101487.53;5057718;28;1171;-54
2022/11/15 05:32:26;;;;;;;;;;;;;;;17.49;48.89;101487.97;5056844;28;2413;-53
2022/11/15 05:35:12;;;;;;;;;;;;;;;17.21;47.89;101489.13;5041714;28;1117;-59
2022/11/15 05:37:56;;;;;;;;;;;;;;;17.77;49.12;101497.81;5057808;28;1176;-55
2022/11/15 05:40:40;;;;;;;;;;;;;;;17.23;48.73;101493.25;5057154;28;1065;-59
2022/11/15 05:43:23;;;;;;;;;;;;;;;17.09;48.67;101492.00;5041755;28;1108;-59
2022/11/15 05:46:07;;;;;;;;;;;;;;;17.52;49.28;101489.38;5044605;28;1054;-56
2022/11/15 05:48:51;;;;;;;;;;;;;;;17.07;48.21;101489.53;5056849;28;1120;-51
2022/11/15 05:51:35;;;;;;;;;;;;;;;18.05;48.06;101493.09;5056713;28;1291;-59
2022/11/15 05:54:19;;;;;;;;;;;;;;;17.15;49.06;101490.97;5052495;28;1969;-60
2022/11/15 05:57:03;;;;;;;;;;;;;;;17.70;49.18;101490.91;5050192;28;855;-59
2022/11/15 05:59:47;;;;;;;;;;;;;;;17.31;48.96;101491.94;5050744;28;922;-59
2022/11/15 06:02:32;;;;;;;;;;;;;;;18.42;48.48;101489.41;5045162;28;2367;-52
2022/11/15 06:05:15;;;;;;;;;;;;;;;18.22;48.90;101484.63;5043763;28;1219;-53
2022/11/15 06:07:59;;;;;;;;;;;;;;;17.32;48.94;101488.13;5055185;28;1025;-54
2022/11/15 06:10:43;;;;;;;;;;;;;;;17.21;47.69;101497.38;5044115;28;946;-56
2022/11/15 06:13:27;;;;;;;;;;;;;;;18.03;49.09;101495.25;5056535;28;1910;-57
2022/11/15 06:16:11;;;;;;;;;;;;;;;17.22;49.46;101493.50;5056669;28;1155;-58
2022/11/15 06:18:55;;;;;;;;;;;;;;;16.98;48.12;101493.81;5056354;28;1104;-56
2022/11/15 06:21:39;;;;;;;;;;;;;;;17.78;48.53;101496.75;5056256;28;873;-56
2022/11/15 06:24:23;;;;;;;;;;;;;;;16.97;48.60;101488.59;5044314;28;982;-57
2022/11/15 06:27:07;;;;;;;;;;;;;;;17.06;48.42;101492.53;5056216;28;1183;-52
2022/11/15 06:29:51;;;;;;;;;;;;;;;17.41;48.93;101497.53;5053843;28;2315;-59
2022/11/15 06:32:35;;;;;;;;;;;;;;;17.84;48.25;101491.25;5055704;28;2037;-57
2022/11/15 06:35:19;;;;;;;;;;;;;;;17.55;48.35;101489.66;5056242;28;1845;-59
2022/11/15 06:38:07;;;;;;;;;;;;;;;17.19;49.52;101491.28;5047096;28;1917;-57
2022/11/15 06:40:51;;;;;;;;;;;;;;;16.88;50.14;101496.44;5052986;28;1919;-59
2022/11/15 06:43:34;;;;;;;;;;;;;;;16.70;50.63;101495.69;5055758;28;2145;-60
2022/11/15 06:46:18;;;;;;;;;;;;;;;16.57;51.21;101494.16;5052836;28;2309;-59
2022/11/15 06:49:02;;;;;;;;;;;;;;;16.46;51.70;101495.13;5055878;28;1115;-63
2022/11/15 06:51:46;;;;;;;;;;;;;;;16.33;51.94;101493.59;5055685;28;1179;-60
2022/11/15 06:54:30;;;;;;;;;;;;;;;16.20;51.96;101492.06;5042176;28;903;-59
2022/11/15 06:57:14;;;;;;;;;;;;;;;16.14;52.45;101489.47;5053904;28;1271;-59
2022/11/15 06:59:58;;;;;;;;;;;;;;;15.98;52.36;101500.25;5050310;28;1326;-57
2022/11/15 07:02:42;;;;;;;;;;;;;;;15.94;52.44;101499.06;5037766;28;1089;-59
2022/11/15 07:05:26;;;;;;;;;;;;;;;16.72;50.81;101504.50;5055763;28;1128;-57
2022/11/15 07:08:10;;;;;;;;;;;;;;;17.02;50.08;101491.41;5041887;28;1037;-58
2022/11/15 07:10:54;;;;;;;;;;;;;;;16.31;51.98;101490.25;5055622;28;1120;-56
2022/11/15 07:13:38;;;;;;;;;;;;;;;16.14;52.47;101494.97;5055579;28;1906;-59
2022/11/15 07:16:21;;;;;;;;;;;;;;;15.95;52.59;101498.00;5055442;28;2676;-59
2022/11/15 07:19:05;;;;;;;;;;;;;;;17.21;49.97;101489.13;5055531;28;1131;-58
2022/11/15 07:21:49;;;;;;;;;;;;;;;16.77;50.92;101493.59;5049658;28;889;-52
2022/11/15 07:24:33;;;;;;;;;;;;;;;16.24;51.87;101493.22;5055541;28;1167;-53
2022/11/15 07:27:17;;;;;;;;;;;;;;;16.10;52.53;101491.06;5055300;28;1163;-49
2022/11/15 07:30:02;;;;;;;;;;;;;;;16.02;52.74;101493.16;5051096;28;1041;-50
2022/11/15 07:32:46;;;;;;;;;;;;;;;17.54;48.82;101489.94;5055143;28;1959;-53
2022/11/15 07:35:30;;;;;;;;;;;;;;;16.53;51.31;101494.94;5041971;28;931;-49
2022/11/15 07:38:20;;;;;;;;;;;;;;;16.21;52.49;101490.13;5048406;28;1133;-50
2022/11/15 07:41:04;;;;;;;;;;;;;;;16.03;52.46;101489.34;5044259;28;916;-55
2022/11/15 07:43:51;;;;;;;;;;;;;;;17.18;50.16;101489.63;5055302;28;1183;-53
2022/11/15 07:46:35;;;;;;;;;;;;;;;16.85;50.61;101485.97;5054970;28;2540;-51
2022/11/15 07:49:19;;;;;;;;;;;;;;;16.37;51.99;101492.00;5055016;28;1182;-49
2022/11/15 07:52:02;;;;;;;;;;;;;;;16.08;52.55;101489.41;5054932;28;1893;-58
2022/11/15 07:54:46;;;;;;;;;;;;;;;15.89;52.89;101483.38;5042837;28;954;-51
2022/11/15 07:57:30;;;;;;;;;;;;;;;17.23;50.11;101475.94;5054986;28;1115;-54
2022/11/15 08:00:14;;;;;;;;;;;;;;;16.86;50.64;101479.41;5059166;28;1096;-49
2022/11/15 08:03:05;;;;;;;;;;;;;;;16.30;52.26;101477.63;5059198;28;1180;-49
2022/11/15 08:05:52;;;;;;;;;;;;;;;16.03;52.82;101489.34;5058786;28;1112;-51
2022/11/15 08:08:36;;;;;;;;;;;;;;;17.54;49.21;101487.19;5058608;28;1172;-47
2022/11/15 08:11:19;;;;;;;;;;;;;;;16.69;51.15;101491.28;5051468;28;1384;-49
2022/11/15 08:14:03;;;;;;;;;;;;;;;16.28;52.14;101481.72;5058831;28;1910;-55
2022/11/15 08:16:47;;;;;;;;;;;;;;;15.99;52.76;101481.84;5051970;28;938;-56
2022/11/15 08:19:31;;;;;;;;;;;;;;;17.47;49.49;101481.09;5056719;28;1319;-55
2022/11/15 08:22:15;;;;;;;;;;;;;;;16.81;51.11;101485.63;5058436;28;876;-52
2022/11/15 08:24:59;;;;;;;;;;;;;;;16.35;52.28;101488.66;5056861;28;993;-57
2022/11/15 08:27:43;;;;;;;;;;;;;;;16.14;52.84;101476.59;5058579;28;1116;-53
2022/11/15 08:30:27;;;;;;;;;;;;;;;17.58;49.13;101477.31;5046282;28;919;-57
2022/11/15 08:33:11;;;;;;;;;;;;;;;16.59;51.64;101472.78;5054243;28;1905;-56
2022/11/15 08:35:56;;;;;;;;;;;;;;;16.23;52.54;101472.31;5058564;28;1073;-55
2022/11/15 08:38:40;;;;;;;;;;;;;;;16.05;53.05;101470.72;5052283;28;1148;-49
2022/11/15 08:41:28;;;;;;;;;;;;;;;17.50;49.44;101458.56;5053209;28;1030;-55
2022/11/15 08:44:12;;;;;;;;;;;;;;;16.68;51.34;101461.34;5036642;28;2377;-59
2022/11/15 08:46:56;;;;;;;;;;;;;;;16.22;52.51;101454.19;5050712;28;1077;-55
2022/11/15 08:49:40;;;;;;;;;;;;;;;16.04;52.87;101458.06;5058294;28;1076;-55
2022/11/15 08:52:24;;;;;;;;;;;;;;;17.27;50.23;101450.41;5057852;28;1913;-51
2022/11/15 08:55:08;;;;;;;;;;;;;;;16.97;50.57;101450.13;5058057;28;1211;-56
2022/11/15 08:57:52;;;;;;;;;;;;;;;16.36;52.32;101449.16;5057562;28;1112;-53
2022/11/15 09:00:35;;;;;;;;;;;;;;;17.03;50.71;101436.19;5057988;28;1128;-58
2022/11/15 09:03:19;;;;;;;;;;;;;;;17.03;50.35;101438.94;5057744;28;1100;-58
2022/11/15 09:06:03;;;;;;;;;;;;;;;16.42;52.09;101428.94;5057829;28;1097;-61
2022/11/15 09:08:48;;;;;;;;;;;;;;;16.15;52.63;101433.53;5028840;28;900;-58
2022/11/15 09:11:32;;;;;;;;;;;;;;;16.75;51.69;101432.56;5052060;28;982;-60
2022/11/15 09:14:16;;;;;;;;;;;;;;;17.25;49.97;101425.13;5057656;28;2301;-60
2022/11/15 09:17:00;;;;;;;;;;;;;;;16.52;51.88;101432.88;5057677;28;1065;-57
2022/11/15 09:19:44;;;;;;;;;;;;;;;16.21;52.60;101427.00;5057439;28;1243;-61
2022/11/15 09:22:28;;;;;;;;;;;;;;;16.03;53.02;101426.25;5049522;28;823;-60
2022/11/15 09:25:12;;;;;;;;;;;;;;;17.58;49.45;101416.81;5057487;28;1131;-57
2022/11/15 09:27:56;;;;;;;;;;;;;;;16.61;51.79;101420.34;5057450;28;1175;-59
2022/11/15 09:30:40;;;;;;;;;;;;;;;16.29;52.67;101410.09;5057363;28;1163;-60
2022/11/15 09:33:24;;;;;;;;;;;;;;;17.71;48.76;101410.03;5057008;28;1910;-59
2022/11/15 09:36:08;;;;;;;;;;;;;;;16.67;51.42;101411.06;5044337;28;1006;-60
2022/11/15 09:38:52;;;;;;;;;;;;;;;16.32;52.39;101409.59;5042169;28;1116;-59
2022/11/15 09:42:11;;;;;;;;;;;;;;;16.13;52.76;101403.59;5057303;28;1068;-57
2022/11/15 09:45:04;;;;;;;;;;;;;;;17.39;50.09;101392.50;4962110;28;2403;-54
2022/11/15 09:48:06;;;;;;;;;;;;;;;16.73;51.25;101385.34;5044342;28;1021;-57
2022/11/15 09:51:00;;;;;;;;;;;;;;;16.31;52.50;101388.69;5039340;28;1138;-56
2022/11/15 09:53:38;;;;;;;;;;;;;;;16.11;53.17;101383.00;5056866;28;1898;-61
2022/11/15 09:56:05;;;;;;;;;;;;;;;17.46;49.68;101386.78;5039269;28;1239;-60
2022/11/15 09:58:39;;;;;;;;;;;;;;;16.90;51.21;101379.75;5057116;28;1187;-62
2022/11/15 10:01:08;;;;;;;;;;;;;;;16.40;52.45;101381.69;5055444;28;1227;-60
2022/11/15 10:03:34;;;;;;;;;;;;;;;16.18;52.79;101372.66;5039098;28;1444;-58
2022/11/15 10:06:00;;;;;;;;;;;;;;;16.77;51.63;101372.75;5056443;28;1128;-59
2022/11/15 10:08:32;;;;;;;;;;;;;;;17.56;49.40;101375.03;5039165;28;1136;-59
2022/11/15 10:11:01;;;;;;;;;;;;;;;16.64;51.75;101369.59;5056841;28;1174;-59
2022/11/15 10:13:29;;;;;;;;;;;;;;;16.27;52.51;101356.56;5056710;28;1894;-58
2022/11/15 10:15:55;;;;;;;;;;;;;;;16.09;53.06;101353.06;5056614;28;2387;-57
2022/11/15 10:18:28;;;;;;;;;;;;;;;16.08;53.34;101351.41;5039000;28;1203;-60
2022/11/15 10:21:00;;;;;;;;;;;;;;;17.56;49.58;101350.28;5056239;28;1163;-59
2022/11/15 10:23:25;;;;;;;;;;;;;;;16.81;51.42;101348.31;5056071;28;911;-61
2022/11/15 10:25:51;;;;;;;;;;;;;;;16.39;52.40;101341.59;5056620;28;1191;-61
2022/11/15 10:28:17;;;;;;;;;;;;;;;16.16;53.13;101341.88;5038146;28;1231;-59
2022/11/15 10:30:50;;;;;;;;;;;;;;;17.40;49.99;101330.94;5056308;28;1192;-60
2022/11/15 10:33:29;;;;;;;;;;;;;;;16.97;50.99;101326.50;5040710;28;1898;-63
2022/11/15 10:36:13;;;;;;;;;;;;;;;16.49;52.29;101321.66;5056145;28;921;-61
2022/11/15 10:38:48;;;;;;;;;;;;;;;16.20;52.90;101326.56;5055859;28;1290;-61
2022/11/15 10:41:13;;;;;;;;;;;;;;;16.06;53.35;101320.66;5046733;28;1373;-59
2022/11/15 10:43:39;;;;;;;;;;;;;;;16.88;51.63;101320.63;5051218;28;1148;-60
2022/11/15 10:46:25;;;;;;;;;;;;;;;17.22;50.60;101312.09;5034544;28;2521;-60
2022/11/15 10:48:50;;;;;;;;;;;;;;;16.43;52.70;101315.28;5055765;28;1583;-61
2022/11/15 10:51:28;;;;;;;;;;;;;;;16.19;53.02;101306.53;5056019;28;1108;-60
2022/11/15 10:53:54;;;;;;;;;;;;;;;17.01;51.30;101305.66;5038506;28;1898;-61
2022/11/15 10:56:20;;;;;;;;;;;;;;;17.10;50.88;101293.91;5052528;28;1307;-59
2022/11/15 11:41:41;;;;;;;;;;;;;;;17.00;51.34;101230.66;4912853;29;1348;-56
2022/11/15 15:23:54;;;;;;;;;;;;;;;16.51;54.30;101014.78;5185848;23;7297;-61
2022/11/15 15:26:20;;;;;;;;;;;;;;;16.31;54.72;101015.47;4863176;29;1778;-55
2022/11/15 15:28:47;;;;;;;;;;;;;;;16.15;54.60;101013.75;4863704;29;2212;-52
2022/11/15 15:31:13;;;;;;;;;;;;;;;16.94;53.72;101009.19;4863868;29;2190;-54
2022/11/15 15:33:38;;;;;;;;;;;;;;;17.27;52.47;101004.34;4863541;29;2037;-57
2022/11/15 15:36:04;;;;;;;;;;;;;;;16.52;54.44;101004.63;4861677;29;1759;-56
2022/11/15 15:38:29;;;;;;;;;;;;;;;16.25;54.92;101005.59;4863262;29;1805;-58
2022/11/15 15:40:55;;;;;;;;;;;;;;;16.66;54.19;101010.44;4867276;29;1793;-55
2022/11/15 15:43:20;;;;;;;;;;;;;;;17.28;52.34;101009.56;4864832;29;1100;-59
2022/11/15 15:45:46;;;;;;;;;;;;;;;16.55;54.15;101013.16;4863379;29;1132;-60
2022/11/15 15:48:12;;;;;;;;;;;;;;;16.25;54.50;101000.91;4863710;29;812;-56
2022/11/15 15:50:38;;;;;;;;;;;;;;;16.56;54.12;101000.25;4863189;29;1132;-57
2022/11/15 15:53:03;;;;;;;;;;;;;;;17.48;51.86;101001.59;4863097;29;1918;-58
2022/11/15 15:55:29;;;;;;;;;;;;;;;16.62;53.93;101001.94;4863784;29;1179;-55
2022/11/15 15:57:54;;;;;;;;;;;;;;;16.29;54.82;101001.22;4863645;29;1083;-52
2022/11/15 16:00:20;;;;;;;;;;;;;;;16.47;54.28;100997.19;4866953;29;879;-51
2022/11/15 16:02:46;;;;;;;;;;;;;;;17.40;51.97;100987.31;4863769;29;1124;-57
2022/11/15 16:05:12;;;;;;;;;;;;;;;16.65;53.69;100992.31;4863369;29;1125;-48
2022/11/15 16:07:37;;;;;;;;;;;;;;;16.31;54.54;100988.03;4863120;29;1210;-55
2022/11/15 16:10:13;;;;;;;;;;;;;;;16.10;54.92;100991.78;4863571;29;1842;-48
2022/11/15 16:12:38;;;;;;;;;;;;;;;17.64;51.39;100991.44;4846822;29;1907;-54
2022/11/15 16:15:04;;;;;;;;;;;;;;;16.82;53.53;100994.88;4863346;29;1179;-55
2022/11/15 16:17:33;;;;;;;;;;;;;;;16.42;54.15;100988.91;4868231;29;1153;-52
2022/11/15 16:19:59;;;;;;;;;;;;;;;16.20;54.59;100994.56;4856716;29;1206;-53
2022/11/15 16:22:24;;;;;;;;;;;;;;;17.52;51.76;100983.47;4866082;29;1226;-52
2022/11/15 16:24:50;;;;;;;;;;;;;;;16.90;53.01;100988.84;4868138;29;897;-56
2022/11/15 16:27:16;;;;;;;;;;;;;;;16.40;54.41;100980.16;4866734;29;1073;-50
2022/11/15 16:29:41;;;;;;;;;;;;;;;16.17;54.54;100981.38;4850015;29;1112;-49
2022/11/15 16:32:07;;;;;;;;;;;;;;;17.54;51.43;100982.06;4849507;29;1088;-53
2022/11/15 16:34:32;;;;;;;;;;;;;;;16.70;53.73;100976.69;4866761;29;1904;-49
2022/11/15 16:36:57;;;;;;;;;;;;;;;16.32;54.59;100980.66;4865779;29;909;-53
2022/11/15 16:39:23;;;;;;;;;;;;;;;16.11;54.49;100975.03;4866438;29;2417;-55
2022/11/15 16:41:49;;;;;;;;;;;;;;;16.02;54.63;100974.72;4866440;29;1208;-56
2022/11/15 16:44:14;;;;;;;;;;;;;;;17.39;52.05;100973.81;4866379;29;1137;-59
2022/11/15 16:46:43;;;;;;;;;;;;;;;16.96;53.10;100971.31;4865191;29;1282;-53
2022/11/15 16:49:14;;;;;;;;;;;;;;;16.40;54.38;100961.75;4865035;29;1080;-62
2022/11/15 16:51:40;;;;;;;;;;;;;;;16.15;54.43;100959.72;4865369;29;1149;-57
2022/11/15 16:54:06;;;;;;;;;;;;;;;17.23;52.23;100948.25;4866508;29;1906;-56
2022/11/15 16:56:31;;;;;;;;;;;;;;;17.24;52.01;100955.41;4866289;29;1211;-60
2022/11/15 16:58:57;;;;;;;;;;;;;;;16.57;54.03;100957.97;4866324;29;1094;-62
2022/11/15 17:01:23;;;;;;;;;;;;;;;16.24;54.28;100960.88;4865256;29;889;-58
2022/11/15 17:03:49;;;;;;;;;;;;;;;17.16;52.82;100961.44;4866116;29;1145;-58
2022/11/15 17:06:14;;;;;;;;;;;;;;;16.97;52.77;100961.97;4865915;29;1101;-54
2022/11/15 17:08:40;;;;;;;;;;;;;;;16.42;54.14;100951.34;4866133;29;2259;-58
2022/11/15 17:11:08;;;;;;;;;;;;;;;16.25;54.27;100962.50;4866419;29;1143;-55
2022/11/15 17:13:34;;;;;;;;;;;;;;;16.04;54.75;100963.50;4877127;29;1918;-56
2022/11/15 17:16:03;;;;;;;;;;;;;;;17.51;51.80;100971.63;4866391;29;1124;-56
2022/11/15 17:18:28;;;;;;;;;;;;;;;16.99;52.90;100962.50;4876387;29;1116;-57
2022/11/15 17:20:54;;;;;;;;;;;;;;;16.47;54.01;100963.44;4865587;29;1234;-55
2022/11/15 17:23:19;;;;;;;;;;;;;;;16.27;54.48;100958.66;4865747;29;1324;-57
2022/11/15 17:25:45;;;;;;;;;;;;;;;16.12;54.54;100952.00;4867559;29;914;-58
2022/11/15 17:28:10;;;;;;;;;;;;;;;17.65;51.35;100944.41;4865590;29;1204;-57
2022/11/15 17:30:36;;;;;;;;;;;;;;;16.81;53.32;100955.56;4864835;29;1128;-56
2022/11/15 17:33:01;;;;;;;;;;;;;;;16.41;54.07;100944.19;4865425;29;1911;-58
2022/11/15 17:35:27;;;;;;;;;;;;;;;16.68;54.02;100940.44;4865730;29;1152;-56
2022/11/15 17:37:52;;;;;;;;;;;;;;;17.40;51.90;100932.34;4874871;29;1012;-58
2022/11/15 17:40:18;;;;;;;;;;;;;;;16.59;53.73;100933.81;4865538;29;2673;-57
2022/11/15 17:42:43;;;;;;;;;;;;;;;16.28;54.46;100927.41;4865740;29;1149;-58
2022/11/15 17:45:09;;;;;;;;;;;;;;;17.20;52.59;100927.66;4865458;29;1129;-55
2022/11/15 17:47:35;;;;;;;;;;;;;;;17.18;52.29;100915.28;4848751;29;1175;-59
2022/11/15 17:50:00;;;;;;;;;;;;;;;16.52;53.87;100925.00;4873626;29;977;-53
2022/11/15 17:52:25;;;;;;;;;;;;;;;16.34;54.44;100920.81;4864903;29;1904;-50
2022/11/15 17:54:51;;;;;;;;;;;;;;;17.09;52.75;100915.81;4864832;29;1104;-55
2022/11/15 17:57:16;;;;;;;;;;;;;;;17.09;52.50;100910.31;4865321;29;1120;-59
2022/11/15 17:59:42;;;;;;;;;;;;;;;16.56;53.82;100906.91;4864902;29;1172;-59
2022/11/15 18:02:11;;;;;;;;;;;;;;;16.28;54.48;100906.25;4871379;29;892;-53
2022/11/15 18:04:37;;;;;;;;;;;;;;;16.34;54.72;100916.19;4864832;29;1116;-54
2022/11/15 18:07:02;;;;;;;;;;;;;;;17.54;51.24;100904.28;4865083;29;1211;-55
2022/11/15 18:09:28;;;;;;;;;;;;;;;16.67;53.49;100897.59;4864675;29;2280;-55
2022/11/15 18:11:53;;;;;;;;;;;;;;;16.33;54.27;100902.72;4865058;29;1152;-55
2022/11/15 18:14:19;;;;;;;;;;;;;;;16.18;54.65;100911.72;4869271;29;1979;-53
2022/11/15 18:16:44;;;;;;;;;;;;;;;17.55;51.57;100901.25;4865224;29;1171;-51
2022/11/15 18:19:12;;;;;;;;;;;;;;;16.65;53.77;100898.97;4872752;29;1446;-50
2022/11/15 18:21:54;;;;;;;;;;;;;;;16.33;54.57;100902.72;4864678;29;1120;-46